Capitol Logistics 418


KPVD
Theodore Francis Green State Airport
Providence, Rhode Island, US
KRFD
Chicago/Rockford International Airport
Rockford, Illinois, US

Route Details

Aircraft Information
Primary: Boeing 757-200SF
Backup: Boeing 737-800BCF
Route Data
Distance: 790nm
Sched. Duration: 1h 39m
Avg. Duration: 2h 27m (+88m)
Times Flown: 10
Recm'd Route: BAF HNK NUGNT DJB J60 JOT V171 RFD
Planned Altitude: 38,000ft
Origin Wx: KPVD 290404Z 19011G14KT 4SM -RA BR BKN005 OVC010 21/20 A3011 RMK AO2 P0001 T02060200
Dest. Wx: KRFD 290354Z 35005KT 10SM FEW055 OVC075 18/14 A2992 RMK AO2 SLP127 T01780144 $
Notes:

Financial History
Total Freight: 482,089lbs
Average Load: 48,209lbs/flt
Fuel Used: 176,771lbs
Avg. Fuel Used: 17,677lbs/flt
Fuel Expense: $167,932
Avg. Fuel Expense: $16,793
Avg. Fuel Cost: $0.95/lbs
Total Gross Income: $629,536
Pilot Pay: $1,540
Total Expenses: $68,510
Total Revenue: $387,648
Average Revenue: $62,953.57